EZY501L LIMC-LICC
Flight info
| Callsign | EZY501L |
|---|---|
| Flight time | N/A |
| Altitude | 39000 |
| Route | ROBAS DCT BEROK DCT TINKU DCT LURON DCT BEKIV DCT ENEPA M871 LIBRO |
| Aircraft | A20N/M-SDE2E3FGHIRWXY/LB1 |
Departure
| Time | 2026-05-05 12:11 |
|---|---|
| Airport | Milan Malpensa International Airport (LIMC) |
Arrival
| Time | N/A |
|---|---|
| Airport | Catania-Fontanarossa Airport (LICC) |
| Time | Latitude | Longitude | Altitude | Speed | Heading |
|---|---|---|---|---|---|
| 2026-05-05 11:44 | 45.62458 | 8.71764 | 729 ft | 0 kts | 258° |
| 2026-05-05 11:57 | 45.62459 | 8.71773 | 728 ft | 2 kts | 258° |
| 2026-05-05 11:57 | 45.62462 | 8.71794 | 729 ft | 2 kts | 259° |
| 2026-05-05 11:57 | 45.62465 | 8.71815 | 727 ft | 2 kts | 259° |
| 2026-05-05 11:58 | 45.62468 | 8.71836 | 727 ft | 2 kts | 259° |
| 2026-05-05 11:58 | 45.62471 | 8.71857 | 728 ft | 2 kts | 239° |
| 2026-05-05 11:58 | 45.62481 | 8.71873 | 727 ft | 2 kts | 208° |
| 2026-05-05 11:58 | 45.62490 | 8.71879 | 729 ft | 1 kts | 182° |
| 2026-05-05 11:59 | 45.62493 | 8.71879 | 729 ft | 0 kts | 176° |
| 2026-05-05 12:00 | 45.62490 | 8.71879 | 729 ft | 2 kts | 176° |
| 2026-05-05 12:01 | 45.62420 | 8.71893 | 727 ft | 2 kts | 168° |
| 2026-05-05 12:01 | 45.62409 | 8.71897 | 729 ft | 3 kts | 168° |
| 2026-05-05 12:01 | 45.62376 | 8.71909 | 728 ft | 6 kts | 162° |
| 2026-05-05 12:01 | 45.62349 | 8.71958 | 726 ft | 7 kts | 100° |
| 2026-05-05 12:02 | 45.62354 | 8.72025 | 726 ft | 6 kts | 79° |
| 2026-05-05 12:02 | 45.62358 | 8.72080 | 726 ft | 5 kts | 99° |
| 2026-05-05 12:02 | 45.62328 | 8.72118 | 725 ft | 8 kts | 158° |
| 2026-05-05 12:02 | 45.62227 | 8.72151 | 723 ft | 19 kts | 166° |
| 2026-05-05 12:03 | 45.62092 | 8.72191 | 721 ft | 21 kts | 171° |
| 2026-05-05 12:03 | 45.61944 | 8.72228 | 717 ft | 22 kts | 170° |
| 2026-05-05 12:03 | 45.61789 | 8.72271 | 717 ft | 23 kts | 169° |
| 2026-05-05 12:03 | 45.61627 | 8.72315 | 713 ft | 24 kts | 168° |
| 2026-05-05 12:04 | 45.61465 | 8.72362 | 707 ft | 18 kts | 169° |
| 2026-05-05 12:04 | 45.61376 | 8.72434 | 700 ft | 15 kts | 136° |
| 2026-05-05 12:04 | 45.61318 | 8.72508 | 695 ft | 10 kts | 155° |
| 2026-05-05 12:04 | 45.61247 | 8.72533 | 697 ft | 11 kts | 167° |
| 2026-05-05 12:05 | 45.61169 | 8.72559 | 699 ft | 12 kts | 167° |
| 2026-05-05 12:05 | 45.61090 | 8.72599 | 696 ft | 12 kts | 136° |
| 2026-05-05 12:05 | 45.61083 | 8.72708 | 693 ft | 11 kts | 77° |
| 2026-05-05 12:05 | 45.61101 | 8.72820 | 690 ft | 14 kts | 78° |
| 2026-05-05 12:06 | 45.61122 | 8.72974 | 698 ft | 16 kts | 79° |
| 2026-05-05 12:06 | 45.61170 | 8.73082 | 695 ft | 11 kts | 36° |
| 2026-05-05 12:06 | 45.61227 | 8.73141 | 698 ft | 11 kts | 35° |
| 2026-05-05 12:06 | 45.61321 | 8.73231 | 695 ft | 16 kts | 32° |
| 2026-05-05 12:07 | 45.61417 | 8.73265 | 700 ft | 13 kts | 347° |
| 2026-05-05 12:07 | 45.61498 | 8.73242 | 698 ft | 10 kts | 351° |
| 2026-05-05 12:07 | 45.61557 | 8.73229 | 702 ft | 7 kts | 350° |
| 2026-05-05 12:07 | 45.61593 | 8.73220 | 698 ft | 4 kts | 350° |
| 2026-05-05 12:08 | 45.61609 | 8.73233 | 705 ft | 5 kts | 47° |
| 2026-05-05 12:08 | 45.61630 | 8.73357 | 704 ft | 19 kts | 79° |
| 2026-05-05 12:08 | 45.61598 | 8.73521 | 697 ft | 14 kts | 112° |
| 2026-05-05 12:08 | 45.61587 | 8.73621 | 701 ft | 10 kts | 84° |
| 2026-05-05 12:09 | 45.61608 | 8.73717 | 695 ft | 10 kts | 54° |
| 2026-05-05 12:09 | 45.61652 | 8.73730 | 698 ft | 5 kts | 349° |
| 2026-05-05 12:09 | 45.61676 | 8.73724 | 699 ft | 2 kts | 349° |
| 2026-05-05 12:09 | 45.61680 | 8.73723 | 699 ft | 0 kts | 349° |
| 2026-05-05 12:10 | 45.61680 | 8.73722 | 699 ft | 4 kts | 349° |
| 2026-05-05 12:10 | 45.62004 | 8.73633 | 711 ft | 89 kts | 349° |
| 2026-05-05 12:10 | 45.62845 | 8.73400 | 728 ft | 154 kts | 349° |
| 2026-05-05 12:10 | 45.63986 | 8.73069 | 1280 ft | 174 kts | 346° |
| 2026-05-05 12:11 | 45.65073 | 8.72100 | 1975 ft | 199 kts | 320° |
| 2026-05-05 12:11 | 45.66186 | 8.70812 | 2607 ft | 217 kts | 324° |
| 2026-05-05 12:11 | 45.67456 | 8.69512 | 3315 ft | 228 kts | 326° |
| 2026-05-05 12:11 | 45.68732 | 8.68130 | 4275 ft | 234 kts | 321° |
| 2026-05-05 12:12 | 45.70029 | 8.66609 | 5067 ft | 246 kts | 321° |
| 2026-05-05 12:12 | 45.71373 | 8.65050 | 6082 ft | 248 kts | 321° |
| 2026-05-05 12:12 | 45.72266 | 8.64016 | 6733 ft | 250 kts | 320° |
| 2026-05-05 12:12 | 45.73356 | 8.62110 | 7701 ft | 249 kts | 292° |
| 2026-05-05 12:13 | 45.73582 | 8.58940 | 8997 ft | 243 kts | 252° |
| 2026-05-05 12:13 | 45.72794 | 8.56843 | 9976 ft | 240 kts | 229° |
| 2026-05-05 12:13 | 45.72042 | 8.55635 | 10580 ft | 240 kts | 225° |
| 2026-05-05 12:13 | 45.70889 | 8.53946 | 11498 ft | 241 kts | 225° |
| 2026-05-05 12:14 | 45.69726 | 8.52206 | 12380 ft | 243 kts | 226° |
| 2026-05-05 12:14 | 45.68589 | 8.50411 | 13279 ft | 244 kts | 228° |
| 2026-05-05 12:14 | 45.67473 | 8.48571 | 14114 ft | 246 kts | 229° |
| 2026-05-05 12:14 | 45.66360 | 8.46696 | 14858 ft | 249 kts | 229° |
| 2026-05-05 12:15 | 45.65243 | 8.44796 | 15611 ft | 251 kts | 229° |
| 2026-05-05 12:15 | 45.64043 | 8.42965 | 16349 ft | 254 kts | 217° |
| 2026-05-05 12:15 | 45.62440 | 8.41898 | 17068 ft | 260 kts | 193° |
| 2026-05-05 12:15 | 45.60606 | 8.41941 | 17764 ft | 272 kts | 169° |
| 2026-05-05 12:16 | 45.58821 | 8.42902 | 18313 ft | 286 kts | 163° |
| 2026-05-05 12:16 | 45.56920 | 8.44073 | 18467 ft | 311 kts | 155° |
| 2026-05-05 12:16 | 45.55202 | 8.46163 | 18641 ft | 342 kts | 132° |
| 2026-05-05 12:16 | 45.54003 | 8.49240 | 18815 ft | 368 kts | 117° |
| 2026-05-05 12:17 | 45.53049 | 8.52746 | 18982 ft | 388 kts | 114° |
| 2026-05-05 12:17 | 45.52122 | 8.56424 | 19372 ft | 398 kts | 114° |
| 2026-05-05 12:17 | 45.51167 | 8.60157 | 20009 ft | 400 kts | 114° |
| 2026-05-05 12:17 | 45.50178 | 8.63892 | 20633 ft | 403 kts | 115° |
| 2026-05-05 12:18 | 45.49160 | 8.67632 | 21243 ft | 406 kts | 116° |
| 2026-05-05 12:18 | 45.48134 | 8.71343 | 21835 ft | 409 kts | 116° |
| 2026-05-05 12:18 | 45.47079 | 8.75133 | 22431 ft | 413 kts | 116° |
| 2026-05-05 12:18 | 45.46009 | 8.78962 | 23032 ft | 416 kts | 116° |
| 2026-05-05 12:19 | 45.44932 | 8.82810 | 23615 ft | 420 kts | 116° |
| 2026-05-05 12:19 | 45.43842 | 8.86701 | 24077 ft | 425 kts | 116° |
| 2026-05-05 12:19 | 45.42742 | 8.90624 | 24511 ft | 429 kts | 116° |
| 2026-05-05 12:19 | 45.41629 | 8.94587 | 24986 ft | 433 kts | 116° |
| 2026-05-05 12:20 | 45.40501 | 8.98598 | 25382 ft | 437 kts | 117° |
| 2026-05-05 12:20 | 45.39366 | 9.02630 | 25809 ft | 441 kts | 117° |
| 2026-05-05 12:20 | 45.38219 | 9.06696 | 26229 ft | 445 kts | 117° |
| 2026-05-05 12:20 | 45.37072 | 9.10756 | 26635 ft | 449 kts | 117° |
| 2026-05-05 12:21 | 45.35900 | 9.14901 | 27034 ft | 452 kts | 117° |
| 2026-05-05 12:21 | 45.34719 | 9.19065 | 27433 ft | 456 kts | 117° |
| 2026-05-05 12:21 | 45.33529 | 9.23257 | 27821 ft | 459 kts | 117° |
| 2026-05-05 12:21 | 45.32327 | 9.27483 | 28190 ft | 463 kts | 117° |
| 2026-05-05 12:22 | 45.31119 | 9.31722 | 28552 ft | 466 kts | 117° |
| 2026-05-05 12:22 | 45.29898 | 9.36002 | 28900 ft | 469 kts | 117° |
| 2026-05-05 12:22 | 45.28666 | 9.40309 | 29243 ft | 472 kts | 117° |
| 2026-05-05 12:22 | 45.27424 | 9.44646 | 29578 ft | 475 kts | 117° |
| 2026-05-05 12:23 | 45.26188 | 9.48955 | 29905 ft | 478 kts | 117° |
| 2026-05-05 12:23 | 45.24922 | 9.53361 | 30216 ft | 481 kts | 117° |
| 2026-05-05 12:23 | 45.23654 | 9.57766 | 30556 ft | 482 kts | 117° |
| 2026-05-05 12:23 | 45.22380 | 9.62184 | 30895 ft | 483 kts | 117° |
| 2026-05-05 12:24 | 45.21039 | 9.66547 | 31263 ft | 480 kts | 123° |
| 2026-05-05 12:24 | 45.19223 | 9.70452 | 31683 ft | 469 kts | 135° |
| 2026-05-05 12:24 | 45.16938 | 9.73677 | 32124 ft | 458 kts | 148° |
| 2026-05-05 12:24 | 45.14341 | 9.76063 | 32542 ft | 446 kts | 160° |
| 2026-05-05 12:25 | 45.11517 | 9.77820 | 32964 ft | 441 kts | 163° |
| 2026-05-05 12:25 | 45.08675 | 9.79443 | 33378 ft | 439 kts | 164° |
| 2026-05-05 12:25 | 45.05850 | 9.81072 | 33799 ft | 438 kts | 163° |
| 2026-05-05 12:25 | 45.03042 | 9.82737 | 34168 ft | 437 kts | 163° |
| 2026-05-05 12:26 | 45.00241 | 9.84432 | 34448 ft | 437 kts | 162° |
| 2026-05-05 12:26 | 44.97447 | 9.86142 | 34713 ft | 437 kts | 162° |
| 2026-05-05 12:26 | 44.94658 | 9.87855 | 34966 ft | 438 kts | 162° |
| 2026-05-05 12:26 | 44.91866 | 9.89571 | 35224 ft | 438 kts | 162° |
| 2026-05-05 12:27 | 44.89071 | 9.91288 | 35471 ft | 438 kts | 162° |
| 2026-05-05 12:27 | 44.86311 | 9.92981 | 35719 ft | 438 kts | 162° |
| 2026-05-05 12:27 | 44.83509 | 9.94698 | 35965 ft | 438 kts | 162° |
| 2026-05-05 12:27 | 44.80715 | 9.96407 | 36189 ft | 439 kts | 162° |
| 2026-05-05 12:28 | 44.77908 | 9.98122 | 36450 ft | 438 kts | 162° |
| 2026-05-05 12:28 | 44.75109 | 9.99830 | 36690 ft | 438 kts | 162° |
| 2026-05-05 12:28 | 44.72313 | 10.01534 | 36890 ft | 439 kts | 162° |
| 2026-05-05 12:28 | 44.69510 | 10.03241 | 37095 ft | 439 kts | 162° |
| 2026-05-05 12:29 | 44.66697 | 10.04952 | 37287 ft | 439 kts | 162° |
| 2026-05-05 12:29 | 44.63893 | 10.06657 | 37493 ft | 439 kts | 162° |
| 2026-05-05 12:29 | 44.61083 | 10.08363 | 37682 ft | 440 kts | 162° |
| 2026-05-05 12:29 | 44.58275 | 10.10066 | 37874 ft | 440 kts | 162° |
| 2026-05-05 12:30 | 44.55464 | 10.11769 | 38079 ft | 440 kts | 162° |
| 2026-05-05 12:30 | 44.52652 | 10.13471 | 38265 ft | 440 kts | 162° |
| 2026-05-05 12:30 | 44.49842 | 10.15170 | 38432 ft | 440 kts | 162° |
| 2026-05-05 12:30 | 44.47032 | 10.16868 | 38584 ft | 440 kts | 162° |
| 2026-05-05 12:31 | 44.44249 | 10.18547 | 38729 ft | 440 kts | 162° |
| 2026-05-05 12:31 | 44.41432 | 10.20244 | 38864 ft | 440 kts | 162° |
| 2026-05-05 12:31 | 44.38626 | 10.21933 | 38977 ft | 440 kts | 162° |
| 2026-05-05 12:31 | 44.35811 | 10.23625 | 38996 ft | 440 kts | 162° |
| 2026-05-05 12:32 | 44.30177 | 10.27009 | 38992 ft | 439 kts | 162° |
| 2026-05-05 12:32 | 44.24559 | 10.30374 | 38997 ft | 439 kts | 162° |
| 2026-05-05 12:33 | 44.18929 | 10.33741 | 38997 ft | 440 kts | 162° |
| 2026-05-05 12:33 | 44.13274 | 10.36716 | 38997 ft | 435 kts | 166° |
| 2026-05-05 12:34 | 44.07531 | 10.39417 | 38993 ft | 435 kts | 166° |
| 2026-05-05 12:34 | 44.01782 | 10.42127 | 38996 ft | 435 kts | 166° |
| 2026-05-05 12:35 | 43.96039 | 10.44829 | 39005 ft | 435 kts | 166° |
| 2026-05-05 12:35 | 43.90330 | 10.47506 | 38998 ft | 435 kts | 166° |
| 2026-05-05 12:36 | 43.84573 | 10.50201 | 38997 ft | 436 kts | 167° |
| 2026-05-05 12:36 | 43.78812 | 10.52892 | 38999 ft | 436 kts | 167° |
| 2026-05-05 12:37 | 43.73111 | 10.55866 | 38987 ft | 439 kts | 163° |
| 2026-05-05 12:37 | 43.67505 | 10.59062 | 38991 ft | 438 kts | 163° |
| 2026-05-05 12:38 | 43.61855 | 10.62276 | 38986 ft | 439 kts | 163° |
| 2026-05-05 12:38 | 43.56232 | 10.65467 | 38989 ft | 439 kts | 163° |
| 2026-05-05 12:39 | 43.50587 | 10.68664 | 38985 ft | 438 kts | 163° |
| 2026-05-05 12:39 | 43.44920 | 10.71865 | 38980 ft | 438 kts | 163° |
| 2026-05-05 12:40 | 43.39307 | 10.75028 | 38979 ft | 438 kts | 163° |
| 2026-05-05 12:40 | 43.33657 | 10.78205 | 38980 ft | 438 kts | 163° |
| 2026-05-05 12:41 | 43.27984 | 10.81388 | 38977 ft | 439 kts | 164° |
| 2026-05-05 12:41 | 43.22364 | 10.84535 | 38983 ft | 439 kts | 163° |
| 2026-05-05 12:42 | 43.16697 | 10.87702 | 38989 ft | 440 kts | 164° |
| 2026-05-05 12:42 | 43.11021 | 10.90867 | 38993 ft | 441 kts | 164° |
| 2026-05-05 12:43 | 43.05330 | 10.94035 | 39006 ft | 442 kts | 164° |
| 2026-05-05 12:43 | 42.99654 | 10.97187 | 39012 ft | 443 kts | 164° |
| 2026-05-05 12:44 | 42.93933 | 11.00358 | 39022 ft | 444 kts | 164° |
| 2026-05-05 12:44 | 42.88206 | 11.03527 | 39018 ft | 443 kts | 164° |
| 2026-05-05 12:45 | 42.82495 | 11.06682 | 39021 ft | 443 kts | 164° |
| 2026-05-05 12:45 | 42.76783 | 11.09828 | 39022 ft | 443 kts | 165° |
| 2026-05-05 12:46 | 42.71051 | 11.12980 | 39019 ft | 444 kts | 165° |
| 2026-05-05 12:46 | 42.65355 | 11.16106 | 39015 ft | 444 kts | 165° |
| 2026-05-05 12:47 | 42.59606 | 11.19255 | 39025 ft | 445 kts | 165° |
| 2026-05-05 12:47 | 42.53849 | 11.22402 | 39019 ft | 446 kts | 165° |
| 2026-05-05 12:48 | 42.48128 | 11.25523 | 39032 ft | 446 kts | 165° |
| 2026-05-05 12:48 | 42.42343 | 11.28672 | 39030 ft | 447 kts | 165° |
| 2026-05-05 12:49 | 42.36569 | 11.31809 | 39023 ft | 447 kts | 165° |
| 2026-05-05 12:49 | 42.30803 | 11.34937 | 39023 ft | 446 kts | 165° |
| 2026-05-05 12:50 | 42.25073 | 11.38037 | 39021 ft | 447 kts | 165° |
| 2026-05-05 12:50 | 42.19292 | 11.41160 | 39024 ft | 447 kts | 165° |
| 2026-05-05 12:51 | 42.13537 | 11.44262 | 39027 ft | 447 kts | 165° |
| 2026-05-05 12:51 | 42.07741 | 11.47381 | 39030 ft | 447 kts | 165° |
| 2026-05-05 12:52 | 42.01954 | 11.50488 | 39026 ft | 447 kts | 165° |
| 2026-05-05 12:52 | 41.96174 | 11.53585 | 39027 ft | 447 kts | 165° |
| 2026-05-05 12:53 | 41.90427 | 11.56659 | 39028 ft | 447 kts | 165° |
| 2026-05-05 12:53 | 41.84636 | 11.59750 | 39025 ft | 447 kts | 165° |
| 2026-05-05 12:54 | 41.75947 | 11.64377 | 39030 ft | 447 kts | 165° |
| 2026-05-05 12:55 | 41.70150 | 11.67456 | 39030 ft | 448 kts | 165° |
| 2026-05-05 12:55 | 41.64379 | 11.70516 | 39041 ft | 449 kts | 165° |
| 2026-05-05 12:56 | 41.58559 | 11.73595 | 39041 ft | 450 kts | 165° |
| 2026-05-05 12:56 | 41.52737 | 11.76670 | 39038 ft | 448 kts | 165° |
| 2026-05-05 12:57 | 41.46977 | 11.79708 | 39039 ft | 448 kts | 165° |
| 2026-05-05 12:57 | 41.41166 | 11.82763 | 39041 ft | 448 kts | 165° |
| 2026-05-05 12:58 | 41.35366 | 11.85808 | 39041 ft | 448 kts | 165° |
| 2026-05-05 12:58 | 41.29570 | 11.88846 | 39043 ft | 448 kts | 165° |
| 2026-05-05 12:59 | 41.24750 | 11.91367 | 39043 ft | 448 kts | 165° |
| 2026-05-05 12:59 | 41.17998 | 11.94893 | 39050 ft | 448 kts | 165° |
| 2026-05-05 13:00 | 41.10237 | 11.98935 | 39041 ft | 448 kts | 165° |
| 2026-05-05 13:01 | 40.98658 | 12.04947 | 39046 ft | 448 kts | 165° |
| 2026-05-05 13:01 | 40.92837 | 12.07961 | 39054 ft | 448 kts | 165° |
| 2026-05-05 13:02 | 40.87025 | 12.10965 | 39057 ft | 448 kts | 165° |
| 2026-05-05 13:02 | 40.81213 | 12.13963 | 39061 ft | 448 kts | 165° |
| 2026-05-05 13:03 | 40.75438 | 12.16937 | 39058 ft | 448 kts | 165° |
| 2026-05-05 13:03 | 40.69614 | 12.19930 | 39057 ft | 448 kts | 165° |
| 2026-05-05 13:04 | 40.63794 | 12.22915 | 39057 ft | 448 kts | 165° |
| 2026-05-05 13:04 | 40.58010 | 12.25876 | 39060 ft | 448 kts | 165° |
| 2026-05-05 13:05 | 40.52185 | 12.28853 | 39059 ft | 449 kts | 165° |
| 2026-05-05 13:05 | 40.46351 | 12.31829 | 39062 ft | 450 kts | 165° |
| 2026-05-05 13:06 | 40.40503 | 12.34805 | 39060 ft | 450 kts | 165° |
| 2026-05-05 13:06 | 40.34647 | 12.37782 | 39061 ft | 451 kts | 165° |
| 2026-05-05 13:07 | 40.28819 | 12.40738 | 39058 ft | 452 kts | 165° |
| 2026-05-05 13:07 | 40.22935 | 12.43717 | 39058 ft | 453 kts | 165° |
| 2026-05-05 13:08 | 40.17038 | 12.46697 | 39056 ft | 454 kts | 165° |
| 2026-05-05 13:08 | 40.11167 | 12.49658 | 39057 ft | 455 kts | 165° |
| 2026-05-05 13:09 | 40.05231 | 12.52647 | 39054 ft | 457 kts | 165° |
| 2026-05-05 13:09 | 39.99288 | 12.55633 | 39055 ft | 458 kts | 165° |
| 2026-05-05 13:10 | 39.93359 | 12.58606 | 39060 ft | 459 kts | 165° |
| 2026-05-05 13:10 | 39.87383 | 12.61599 | 39067 ft | 461 kts | 165° |
| 2026-05-05 13:11 | 39.81393 | 12.64592 | 39070 ft | 462 kts | 165° |
| 2026-05-05 13:11 | 39.75368 | 12.67597 | 39074 ft | 463 kts | 165° |
| 2026-05-05 13:12 | 39.69340 | 12.70598 | 39074 ft | 463 kts | 165° |
| 2026-05-05 13:12 | 39.63368 | 12.73568 | 39068 ft | 461 kts | 165° |
| 2026-05-05 13:13 | 39.57373 | 12.76540 | 39068 ft | 461 kts | 165° |
| 2026-05-05 13:13 | 39.51379 | 12.79508 | 39071 ft | 461 kts | 165° |
| 2026-05-05 13:14 | 39.45382 | 12.82471 | 39071 ft | 460 kts | 165° |
| 2026-05-05 13:14 | 39.39392 | 12.85425 | 39075 ft | 460 kts | 165° |
| 2026-05-05 13:15 | 39.33426 | 12.88362 | 39072 ft | 461 kts | 165° |
| 2026-05-05 13:15 | 39.27436 | 12.91306 | 39075 ft | 461 kts | 165° |
| 2026-05-05 13:16 | 39.21431 | 12.94252 | 39072 ft | 461 kts | 165° |
| 2026-05-05 13:16 | 39.15466 | 12.97172 | 39074 ft | 461 kts | 165° |
| 2026-05-05 13:17 | 39.09440 | 13.00118 | 39073 ft | 461 kts | 165° |
| 2026-05-05 13:17 | 39.03458 | 13.03039 | 38869 ft | 457 kts | 165° |
| 2026-05-05 13:18 | 39.00529 | 13.04468 | 38433 ft | 454 kts | 165° |
| 2026-05-05 13:18 | 38.97585 | 13.05904 | 37908 ft | 450 kts | 165° |
| 2026-05-05 13:18 | 38.94663 | 13.07328 | 37371 ft | 447 kts | 165° |
| 2026-05-05 13:18 | 38.91767 | 13.08736 | 36844 ft | 443 kts | 165° |
| 2026-05-05 13:19 | 38.88893 | 13.10133 | 36348 ft | 439 kts | 165° |
| 2026-05-05 13:19 | 38.86037 | 13.11520 | 35847 ft | 436 kts | 165° |
| 2026-05-05 13:19 | 38.83262 | 13.12947 | 35364 ft | 435 kts | 162° |
| 2026-05-05 13:19 | 38.80501 | 13.14530 | 34872 ft | 433 kts | 161° |
| 2026-05-05 13:20 | 38.77769 | 13.16136 | 34394 ft | 430 kts | 161° |
| 2026-05-05 13:20 | 38.75050 | 13.17726 | 33893 ft | 427 kts | 161° |
| 2026-05-05 13:20 | 38.72350 | 13.19286 | 33407 ft | 423 kts | 161° |
| 2026-05-05 13:20 | 38.69671 | 13.20819 | 32935 ft | 419 kts | 162° |
| 2026-05-05 13:21 | 38.67013 | 13.22333 | 32447 ft | 416 kts | 162° |
| 2026-05-05 13:21 | 38.64404 | 13.23813 | 32001 ft | 412 kts | 162° |
| 2026-05-05 13:21 | 38.61789 | 13.25296 | 31526 ft | 409 kts | 162° |
| 2026-05-05 13:21 | 38.59203 | 13.26761 | 31094 ft | 405 kts | 161° |
| 2026-05-05 13:22 | 38.56625 | 13.28220 | 30653 ft | 402 kts | 161° |
| 2026-05-05 13:22 | 38.54075 | 13.29663 | 30217 ft | 399 kts | 161° |
| 2026-05-05 13:22 | 38.51545 | 13.31094 | 29736 ft | 396 kts | 161° |
| 2026-05-05 13:22 | 38.49041 | 13.32508 | 29265 ft | 392 kts | 161° |
| 2026-05-05 13:23 | 38.46555 | 13.33911 | 28779 ft | 389 kts | 161° |
| 2026-05-05 13:23 | 38.44091 | 13.35301 | 28324 ft | 385 kts | 161° |
| 2026-05-05 13:23 | 38.41647 | 13.36678 | 27866 ft | 382 kts | 161° |
| 2026-05-05 13:23 | 38.39247 | 13.38029 | 27419 ft | 379 kts | 161° |
| 2026-05-05 13:24 | 38.36814 | 13.39397 | 26974 ft | 376 kts | 161° |
| 2026-05-05 13:24 | 38.34448 | 13.40727 | 26541 ft | 373 kts | 161° |
| 2026-05-05 13:24 | 38.32084 | 13.42055 | 26105 ft | 370 kts | 161° |
| 2026-05-05 13:24 | 38.29735 | 13.43373 | 25690 ft | 367 kts | 161° |
| 2026-05-05 13:25 | 38.27403 | 13.44682 | 25276 ft | 365 kts | 160° |
| 2026-05-05 13:25 | 38.25089 | 13.45979 | 24884 ft | 362 kts | 160° |
| 2026-05-05 13:25 | 38.22792 | 13.47265 | 24482 ft | 359 kts | 160° |
| 2026-05-05 13:25 | 38.20509 | 13.48544 | 24102 ft | 356 kts | 160° |
| 2026-05-05 13:26 | 38.18250 | 13.49808 | 23722 ft | 354 kts | 160° |
| 2026-05-05 13:26 | 38.16000 | 13.51066 | 23277 ft | 351 kts | 160° |
| 2026-05-05 13:26 | 38.13799 | 13.52297 | 22846 ft | 349 kts | 160° |
| 2026-05-05 13:26 | 38.11583 | 13.53536 | 22401 ft | 346 kts | 160° |
| 2026-05-05 13:27 | 38.09383 | 13.54763 | 21948 ft | 344 kts | 160° |
| 2026-05-05 13:27 | 38.07184 | 13.55990 | 21513 ft | 342 kts | 160° |
| 2026-05-05 13:27 | 38.05007 | 13.57203 | 21094 ft | 340 kts | 160° |
| 2026-05-05 13:27 | 38.02868 | 13.58395 | 20707 ft | 338 kts | 160° |
| 2026-05-05 13:28 | 38.00712 | 13.59596 | 20283 ft | 336 kts | 160° |
| 2026-05-05 13:28 | 37.98576 | 13.60784 | 19874 ft | 334 kts | 160° |
| 2026-05-05 13:28 | 37.96452 | 13.61964 | 19483 ft | 333 kts | 160° |
| 2026-05-05 13:28 | 37.94338 | 13.63140 | 19104 ft | 330 kts | 160° |
| 2026-05-05 13:29 | 37.92236 | 13.64309 | 18720 ft | 329 kts | 161° |
| 2026-05-05 13:29 | 37.90150 | 13.65469 | 18368 ft | 327 kts | 160° |
| 2026-05-05 13:29 | 37.88231 | 13.67052 | 17921 ft | 333 kts | 139° |
| 2026-05-05 13:29 | 37.86900 | 13.69452 | 17500 ft | 337 kts | 115° |
| 2026-05-05 13:30 | 37.86031 | 13.72198 | 17120 ft | 335 kts | 114° |
| 2026-05-05 13:30 | 37.85197 | 13.74905 | 16752 ft | 333 kts | 114° |
| 2026-05-05 13:30 | 37.84354 | 13.77632 | 16370 ft | 331 kts | 114° |
| 2026-05-05 13:30 | 37.83514 | 13.80331 | 16001 ft | 328 kts | 114° |
| 2026-05-05 13:31 | 37.82674 | 13.83015 | 15605 ft | 327 kts | 114° |
| 2026-05-05 13:31 | 37.81834 | 13.85684 | 15276 ft | 325 kts | 114° |
| 2026-05-05 13:31 | 37.81004 | 13.88325 | 14918 ft | 323 kts | 114° |
| 2026-05-05 13:31 | 37.80173 | 13.90961 | 14563 ft | 320 kts | 114° |
| 2026-05-05 13:32 | 37.79358 | 13.93543 | 14200 ft | 320 kts | 114° |
| 2026-05-05 13:32 | 37.78538 | 13.96142 | 13867 ft | 317 kts | 114° |
| 2026-05-05 13:32 | 37.77719 | 13.98731 | 13501 ft | 315 kts | 114° |
| 2026-05-05 13:32 | 37.76909 | 14.01285 | 13129 ft | 313 kts | 114° |
| 2026-05-05 13:33 | 37.76086 | 14.03827 | 12779 ft | 311 kts | 115° |
| 2026-05-05 13:33 | 37.75264 | 14.06343 | 12436 ft | 309 kts | 115° |
| 2026-05-05 13:33 | 37.74448 | 14.08847 | 12111 ft | 306 kts | 114° |
| 2026-05-05 13:33 | 37.73648 | 14.11299 | 11778 ft | 303 kts | 114° |
| 2026-05-05 13:34 | 37.72848 | 14.13756 | 11450 ft | 302 kts | 114° |
| 2026-05-05 13:34 | 37.72053 | 14.16198 | 11173 ft | 298 kts | 114° |
| 2026-05-05 13:34 | 37.71265 | 14.18608 | 11072 ft | 297 kts | 114° |
| 2026-05-05 13:34 | 37.70470 | 14.21043 | 11072 ft | 302 kts | 114° |
| 2026-05-05 13:35 | 37.69669 | 14.23494 | 11066 ft | 299 kts | 114° |
| 2026-05-05 13:35 | 37.68876 | 14.25922 | 11068 ft | 299 kts | 114° |
| 2026-05-05 13:35 | 37.68079 | 14.28359 | 11065 ft | 301 kts | 114° |
| 2026-05-05 13:35 | 37.67282 | 14.30792 | 11068 ft | 300 kts | 114° |
| 2026-05-05 13:36 | 37.66485 | 14.33225 | 11067 ft | 299 kts | 114° |
| 2026-05-05 13:36 | 37.65694 | 14.35640 | 11066 ft | 302 kts | 114° |
| 2026-05-05 13:36 | 37.64890 | 14.38092 | 11061 ft | 300 kts | 114° |
| 2026-05-05 13:36 | 37.64092 | 14.40520 | 11069 ft | 301 kts | 114° |
| 2026-05-05 13:37 | 37.63289 | 14.42959 | 11072 ft | 301 kts | 114° |
| 2026-05-05 13:37 | 37.62544 | 14.45430 | 11059 ft | 301 kts | 105° |
| 2026-05-05 13:37 | 37.62257 | 14.48057 | 11066 ft | 303 kts | 90° |
| 2026-05-05 13:37 | 37.62415 | 14.50674 | 11060 ft | 303 kts | 84° |
| 2026-05-05 13:38 | 37.62610 | 14.53325 | 11064 ft | 304 kts | 85° |
| 2026-05-05 13:38 | 37.62800 | 14.55977 | 11065 ft | 302 kts | 85° |
| 2026-05-05 13:38 | 37.62984 | 14.58623 | 11069 ft | 303 kts | 85° |
| 2026-05-05 13:38 | 37.63165 | 14.61276 | 11065 ft | 302 kts | 85° |
| 2026-05-05 13:39 | 37.63345 | 14.63922 | 11071 ft | 303 kts | 85° |
| 2026-05-05 13:39 | 37.63524 | 14.66543 | 11067 ft | 302 kts | 85° |
| 2026-05-05 13:39 | 37.63659 | 14.69184 | 11071 ft | 302 kts | 94° |
| 2026-05-05 13:39 | 37.63138 | 14.71718 | 11074 ft | 299 kts | 120° |
| 2026-05-05 13:40 | 37.61833 | 14.73724 | 11075 ft | 296 kts | 146° |
| 2026-05-05 13:40 | 37.60013 | 14.74818 | 11079 ft | 288 kts | 171° |
| 2026-05-05 13:40 | 37.58020 | 14.75091 | 11073 ft | 286 kts | 187° |
| 2026-05-05 13:40 | 37.56146 | 14.74444 | 11080 ft | 278 kts | 211° |
| 2026-05-05 13:41 | 37.54661 | 14.72937 | 11085 ft | 274 kts | 233° |
| 2026-05-05 13:41 | 37.53754 | 14.70854 | 11080 ft | 272 kts | 255° |
| 2026-05-05 13:41 | 37.53473 | 14.68499 | 11077 ft | 272 kts | 264° |
| 2026-05-05 13:41 | 37.53278 | 14.66128 | 11077 ft | 270 kts | 264° |
| 2026-05-05 13:42 | 37.53079 | 14.63776 | 11076 ft | 272 kts | 264° |
| 2026-05-05 13:42 | 37.52876 | 14.61436 | 11079 ft | 273 kts | 264° |
| 2026-05-05 13:42 | 37.52667 | 14.59057 | 11046 ft | 270 kts | 264° |
| 2026-05-05 13:42 | 37.52458 | 14.56704 | 10799 ft | 270 kts | 264° |
| 2026-05-05 13:43 | 37.52247 | 14.54345 | 10406 ft | 271 kts | 263° |